Station History

Weather Underground - logo

Station Historical Data
Daily Summary for September 1, 2017 Units:  English    Metric   Both
« Previous Day
Next Day »
Daily Weekly Monthly Yearly Custom
  High: Low: Average:
Temperature: 102.3 °F 72.5 °F 87 °F
Dew Point: 68.8 °F 60.4 °F 66 °F
Humidity: 81 % 27 % 53 %
Wind Speed: 4.6 mph 0.0 mph 1 mph
Wind Gust: 4.6 mph - -
Wind:- - WSW
Pressure: 29.81 in 29.69 in -
Precipitation: 0.00 in    
Historical Graphs
 
 
Tabular Data for September 1, 2017
Time Temperature Dew Point Pressure Wind Wind Speed Wind Gust Humidity Rainfall Rate (Hourly)
00:03 80.0 °F 67.2 °F 29.75 in Calm     65 % 0.00 in
00:09 79.6 °F 67.2 °F 29.75 in Calm     66 % 0.00 in
00:14 79.3 °F 67.4 °F 29.75 in Calm     67 % 0.00 in
00:19 79.2 °F 67.7 °F 29.75 in Calm     68 % 0.00 in
00:24 79.2 °F 67.3 °F 29.75 in Calm     67 % 0.00 in
00:29 79.4 °F 67.0 °F 29.75 in Calm     66 % 0.00 in
00:34 79.5 °F 67.6 °F 29.75 in Calm     67 % 0.00 in
00:39 79.6 °F 67.7 °F 29.75 in Calm     67 % 0.00 in
00:44 79.4 °F 67.0 °F 29.75 in Calm     66 % 0.00 in
00:49 79.2 °F 66.9 °F 29.75 in Calm     66 % 0.00 in
00:54 79.1 °F 66.8 °F 29.75 in Calm     66 % 0.00 in
00:59 78.9 °F 67.0 °F 29.75 in Calm     67 % 0.00 in
01:04 78.7 °F 66.8 °F 29.75 in Calm     67 % 0.00 in
01:09 78.5 °F 66.6 °F 29.75 in Calm     67 % 0.00 in
01:14 78.4 °F 66.5 °F 29.75 in Calm     67 % 0.00 in
01:19 78.4 °F 67.0 °F 29.75 in Calm     68 % 0.00 in
01:24 78.5 °F 67.5 °F 29.75 in Calm     69 % 0.00 in
01:29 78.4 °F 67.4 °F 29.74 in Calm     69 % 0.00 in
01:34 78.6 °F 67.2 °F 29.74 in Calm     68 % 0.00 in
01:39 78.5 °F 67.5 °F 29.74 in Calm     69 % 0.00 in
01:44 78.4 °F 68.2 °F 29.74 in Calm     71 % 0.00 in
01:49 78.4 °F 68.2 °F 29.73 in Calm     71 % 0.00 in
01:54 78.3 °F 68.1 °F 29.73 in Calm     71 % 0.00 in
01:59 78.1 °F 68.3 °F 29.73 in Calm     72 % 0.00 in
02:04 77.9 °F 68.1 °F 29.73 in Calm     72 % 0.00 in
02:09 78.2 °F 68.0 °F 29.74 in Calm     71 % 0.00 in
02:14 78.5 °F 67.5 °F 29.74 in Calm     69 % 0.00 in
02:19 78.6 °F 67.6 °F 29.74 in Calm     69 % 0.00 in
02:24 78.9 °F 67.9 °F 29.74 in Calm     69 % 0.00 in
02:29 79.1 °F 67.6 °F 29.74 in Calm     68 % 0.00 in
02:30 79.2 °F 67.7 °F 29.73 in Calm     68 % 0.00 in
02:35 79.2 °F 68.6 °F 29.74 in Calm     70 % 0.00 in
02:40 79.2 °F 67.7 °F 29.74 in Calm     68 % 0.00 in
02:45 79.4 °F 67.0 °F 29.74 in Calm     66 % 0.00 in
02:50 79.7 °F 66.9 °F 29.74 in Calm     65 % 0.00 in
02:51 79.7 °F 66.9 °F 29.74 in Calm     65 % 0.00 in
02:56 79.7 °F 66.9 °F 29.74 in NNW 1.2 mph   65 % 0.00 in
03:01 79.7 °F 66.9 °F 29.74 in Calm     65 % 0.00 in
03:07 79.5 °F 66.7 °F 29.74 in Calm     65 % 0.00 in
03:11 79.5 °F 66.3 °F 29.74 in Calm     64 % 0.00 in
03:17 79.7 °F 66.4 °F 29.74 in Calm     64 % 0.00 in
03:22 79.7 °F 66.0 °F 29.74 in Calm     63 % 0.00 in
03:27 79.8 °F 66.1 °F 29.75 in Calm     63 % 0.00 in
03:32 79.7 °F 66.9 °F 29.75 in Calm     65 % 0.00 in
03:37 79.5 °F 66.7 °F 29.75 in Calm     65 % 0.00 in
03:42 79.0 °F 67.1 °F 29.75 in Calm     67 % 0.00 in
03:47 78.2 °F 67.2 °F 29.75 in NNE 1.2 mph   69 % 0.00 in
03:52 77.5 °F 67.4 °F 29.75 in Calm     71 % 0.00 in
03:57 76.9 °F 67.6 °F 29.75 in Calm     73 % 0.00 in
04:02 76.4 °F 67.5 °F 29.75 in Calm     74 % 0.00 in
04:07 76.1 °F 68.0 °F 29.75 in Calm     76 % 0.00 in
04:12 75.8 °F 67.7 °F 29.75 in Calm     76 % 0.00 in
04:17 75.5 °F 67.4 °F 29.75 in Calm     76 % 0.00 in
04:22 75.3 °F 67.6 °F 29.75 in Calm     77 % 0.00 in
04:27 75.0 °F 67.3 °F 29.75 in Calm     77 % 0.00 in
04:32 74.7 °F 67.4 °F 29.75 in Calm     78 % 0.00 in
04:37 74.4 °F 66.7 °F 29.75 in Calm     77 % 0.00 in
04:42 74.3 °F 66.6 °F 29.75 in Calm     77 % 0.00 in
04:52 74.3 °F 66.2 °F 29.75 in NE 1.2 mph 1.2 mph 76 % 0.00 in
04:57 74.3 °F 66.2 °F 29.75 in Calm   0.1 mph 76 % 0.00 in
05:02 74.3 °F 65.9 °F 29.75 in Calm     75 % 0.00 in
05:07 74.3 °F 65.9 °F 29.75 in Calm     75 % 0.00 in
05:12 74.2 °F 65.8 °F 29.75 in Calm     75 % 0.00 in
05:17 74.2 °F 66.1 °F 29.75 in Calm     76 % 0.00 in
05:22 74.1 °F 66.0 °F 29.76 in Calm     76 % 0.00 in
05:27 74.0 °F 66.0 °F 29.76 in Calm     76 % 0.00 in
05:32 74.0 °F 66.3 °F 29.76 in Calm     77 % 0.00 in
05:37 73.9 °F 66.2 °F 29.76 in Calm     77 % 0.00 in
05:42 73.7 °F 66.0 °F 29.76 in Calm     77 % 0.00 in
05:47 73.7 °F 66.4 °F 29.76 in Calm     78 % 0.00 in
05:52 73.6 °F 66.3 °F 29.76 in NE 1.2 mph   78 % 0.00 in
05:57 73.6 °F 66.7 °F 29.76 in Calm     79 % 0.00 in
05:59 73.5 °F 66.6 °F 29.76 in Calm     79 % 0.00 in
06:04 73.5 °F 66.9 °F 29.76 in Calm     80 % 0.00 in
06:09 73.5 °F 66.9 °F 29.76 in Calm     80 % 0.00 in
06:14 73.3 °F 66.8 °F 29.76 in Calm     80 % 0.00 in
06:19 73.1 °F 66.2 °F 29.76 in Calm     79 % 0.00 in
06:24 73.0 °F 66.1 °F 29.76 in Calm     79 % 0.00 in
06:30 72.9 °F 66.4 °F 29.76 in Calm     80 % 0.00 in
06:35 72.9 °F 66.4 °F 29.76 in Calm     80 % 0.00 in
06:40 72.7 °F 66.2 °F 29.77 in Calm     80 % 0.00 in
06:45 72.7 °F 66.2 °F 29.77 in Calm     80 % 0.00 in
06:50 72.6 °F 66.1 °F 29.77 in Calm     80 % 0.00 in
06:55 72.5 °F 66.3 °F 29.77 in Calm     81 % 0.00 in
07:00 72.5 °F 66.3 °F 29.77 in Calm     81 % 0.00 in
07:05 72.6 °F 66.4 °F 29.77 in Calm     81 % 0.00 in
07:10 72.6 °F 66.4 °F 29.77 in Calm     81 % 0.00 in
07:15 72.7 °F 66.2 °F 29.77 in Calm     80 % 0.00 in
07:20 73.0 °F 66.1 °F 29.77 in Calm     79 % 0.00 in
07:25 73.3 °F 66.0 °F 29.78 in NE 1.2 mph   78 % 0.00 in
07:30 73.8 °F 65.8 °F 29.78 in NE 1.2 mph 1.2 mph 76 % 0.00 in
07:35 74.4 °F 66.3 °F 29.78 in Calm     76 % 0.00 in
07:40 74.6 °F 66.5 °F 29.78 in NE 1.2 mph 1.2 mph 76 % 0.00 in
07:45 74.6 °F 66.9 °F 29.79 in NE 1.2 mph   77 % 0.00 in
07:50 74.8 °F 66.7 °F 29.79 in NE 1.2 mph 1.2 mph 76 % 0.00 in
07:55 75.3 °F 66.8 °F 29.79 in Calm     75 % 0.00 in
08:00 75.9 °F 67.0 °F 29.79 in NE 1.2 mph 1.2 mph 74 % 0.00 in
08:05 76.5 °F 66.8 °F 29.79 in NE 1.2 mph 1.2 mph 72 % 0.00 in
08:10 77.0 °F 66.9 °F 29.79 in NE 1.0 mph   71 % 0.00 in
08:15 77.5 °F 66.9 °F 29.80 in ESE 2.3 mph 2.3 mph 70 % 0.00 in
08:20 78.2 °F 66.3 °F 29.80 in SSE 2.3 mph 2.3 mph 67 % 0.00 in
08:25 78.9 °F 66.1 °F 29.79 in SE 2.3 mph 2.3 mph 65 % 0.00 in
08:30 79.4 °F 66.2 °F 29.79 in SE 2.3 mph 2.3 mph 64 % 0.00 in
08:35 79.8 °F 66.1 °F 29.80 in SE 2.3 mph 2.3 mph 63 % 0.00 in
08:40 80.4 °F 66.6 °F 29.80 in SE 1.0 mph   63 % 0.00 in
08:42 80.7 °F 66.5 °F 29.80 in SE 2.3 mph 2.3 mph 62 % 0.00 in
08:47 81.1 °F 66.4 °F 29.80 in SE 3.5 mph 3.5 mph 61 % 0.00 in
08:52 81.5 °F 66.8 °F 29.80 in SE 1.2 mph 1.2 mph 61 % 0.00 in
08:57 82.1 °F 67.3 °F 29.80 in SE 1.2 mph   61 % 0.00 in
09:02 82.7 °F 67.4 °F 29.80 in ESE 2.3 mph 2.3 mph 60 % 0.00 in
09:07 83.1 °F 66.8 °F 29.80 in SSE 3.5 mph 3.5 mph 58 % 0.00 in
09:08 83.2 °F 67.4 °F 29.80 in South 2.3 mph 2.3 mph 59 % 0.00 in
09:13 83.6 °F 66.8 °F 29.80 in SE 2.3 mph 2.3 mph 57 % 0.00 in
09:18 83.9 °F 67.5 °F 29.80 in SE 1.2 mph 1.2 mph 58 % 0.00 in
09:23 84.5 °F 67.1 °F 29.80 in ESE 2.3 mph 2.3 mph 56 % 0.00 in
09:28 84.8 °F 66.8 °F 29.80 in SSE 2.3 mph 2.3 mph 55 % 0.00 in
09:33 85.4 °F 65.8 °F 29.80 in SE 3.5 mph 3.5 mph 52 % 0.00 in
09:38 86.1 °F 67.0 °F 29.80 in SSW 1.0 mph 1.0 mph 53 % 0.00 in
09:43 87.0 °F 67.2 °F 29.80 in Calm     52 % 0.00 in
09:48 87.7 °F 66.8 °F 29.80 in Calm     50 % 0.00 in
09:53 87.9 °F 68.1 °F 29.80 in Calm     52 % 0.00 in
09:58 88.0 °F 67.6 °F 29.81 in SSW 1.2 mph   51 % 0.00 in
10:03 88.3 °F 68.4 °F 29.80 in Calm     52 % 0.00 in
10:08 88.6 °F 67.6 °F 29.81 in Calm     50 % 0.00 in
10:13 88.3 °F 67.3 °F 29.81 in Calm     50 % 0.00 in
10:18 88.3 °F 67.9 °F 29.81 in Calm     51 % 0.00 in
10:23 88.6 °F 67.0 °F 29.81 in WNW 1.2 mph 1.2 mph 49 % 0.00 in
10:28 88.7 °F 67.7 °F 29.81 in WNW 1.2 mph 1.2 mph 50 % 0.00 in
10:33 88.9 °F 68.4 °F 29.81 in Calm     51 % 0.00 in
10:38 89.6 °F 67.3 °F 29.81 in NNW 1.2 mph 1.2 mph 48 % 0.00 in
10:43 90.2 °F 68.5 °F 29.81 in Calm   0.3 mph 49 % 0.00 in
10:48 90.6 °F 67.6 °F 29.80 in North 1.2 mph   47 % 0.00 in
10:59 91.4 °F 68.3 °F 29.81 in ENE 1.2 mph 1.2 mph 47 % 0.00 in
11:04 91.5 °F 68.4 °F 29.80 in SE 1.2 mph 1.2 mph 47 % 0.00 in
11:09 91.6 °F 67.3 °F 29.80 in WNW 1.2 mph   45 % 0.00 in
11:14 91.4 °F 65.1 °F 29.80 in NW 1.2 mph 1.2 mph 42 % 0.00 in
11:19 91.3 °F 65.0 °F 29.80 in NW 1.2 mph 1.2 mph 42 % 0.00 in
11:22 91.6 °F 67.3 °F 29.80 in SSE 1.2 mph   45 % 0.00 in
11:27 92.5 °F 68.1 °F 29.80 in Calm     45 % 0.00 in
11:32 93.1 °F 66.6 °F 29.80 in Calm     42 % 0.00 in
11:37 93.6 °F 66.4 °F 29.80 in SE 1.2 mph 1.2 mph 41 % 0.00 in
11:42 94.1 °F 66.1 °F 29.80 in SE 1.2 mph 1.2 mph 40 % 0.00 in
11:48 94.5 °F 67.2 °F 29.80 in North 1.2 mph 1.2 mph 41 % 0.00 in
11:53 95.0 °F 66.9 °F 29.80 in Calm     40 % 0.00 in
11:58 95.2 °F 67.1 °F 29.79 in WNW 1.2 mph 1.2 mph 40 % 0.00 in
12:03 95.4 °F 65.8 °F 29.79 in NNW 1.2 mph 1.2 mph 38 % 0.00 in
12:08 95.4 °F 67.2 °F 29.79 in SSE 1.2 mph 1.2 mph 40 % 0.00 in
12:13 95.6 °F 65.9 °F 29.79 in West 1.2 mph 1.2 mph 38 % 0.00 in
12:18 95.6 °F 64.4 °F 29.78 in West 2.3 mph 2.3 mph 36 % 0.00 in
12:23 95.6 °F 64.4 °F 29.78 in NW 2.3 mph 2.3 mph 36 % 0.00 in
12:28 95.7 °F 65.3 °F 29.78 in ENE 2.0 mph 2.0 mph 37 % 0.00 in
12:33 95.9 °F 65.4 °F 29.78 in WNW 1.2 mph   37 % 0.00 in
12:38 96.5 °F 66.7 °F 29.78 in NW 1.2 mph 1.2 mph 38 % 0.00 in
12:43 96.8 °F 64.6 °F 29.78 in NW 3.5 mph 3.5 mph 35 % 0.00 in
12:48 96.9 °F 64.7 °F 29.78 in NW 2.3 mph 2.3 mph 35 % 0.00 in
12:53 96.9 °F 63.9 °F 29.77 in NNW 2.3 mph 2.3 mph 34 % 0.00 in
12:58 97.4 °F 64.3 °F 29.77 in NW 1.2 mph   34 % 0.00 in
13:03 97.6 °F 64.5 °F 29.77 in WNW 1.2 mph   34 % 0.00 in
13:08 98.2 °F 64.2 °F 29.77 in WNW 1.2 mph 1.2 mph 33 % 0.00 in
13:13 99.0 °F 64.0 °F 29.76 in South 2.3 mph 2.3 mph 32 % 0.00 in
13:18 99.8 °F 65.6 °F 29.76 in NE 1.2 mph 1.2 mph 33 % 0.00 in
13:23 99.7 °F 64.6 °F 29.76 in East 1.2 mph 1.2 mph 32 % 0.00 in
13:28 99.8 °F 63.8 °F 29.76 in NW 1.2 mph 1.2 mph 31 % 0.00 in
13:33 100.0 °F 63.9 °F 29.76 in WNW 2.3 mph 2.3 mph 31 % 0.00 in
13:38 100.1 °F 66.7 °F 29.76 in WNW 1.2 mph 1.2 mph 34 % 0.00 in
13:43 100.2 °F 65.9 °F 29.76 in North 2.3 mph 2.3 mph 33 % 0.00 in
13:48 100.5 °F 65.3 °F 29.76 in WNW 2.3 mph 2.3 mph 32 % 0.00 in
13:53 100.5 °F 62.5 °F 29.75 in NW 2.3 mph 2.3 mph 29 % 0.00 in
13:58 100.4 °F 63.3 °F 29.75 in NW 3.5 mph 3.5 mph 30 % 0.00 in
14:03 100.5 °F 62.5 °F 29.75 in NW 1.2 mph 1.2 mph 29 % 0.00 in
14:08 100.4 °F 64.3 °F 29.75 in North 2.3 mph 2.3 mph 31 % 0.00 in
14:13 100.5 °F 64.4 °F 29.75 in NW 2.3 mph 2.3 mph 31 % 0.00 in
14:18 100.6 °F 63.5 °F 29.74 in WNW 2.3 mph 2.3 mph 30 % 0.00 in
14:23 100.8 °F 64.6 °F 29.74 in NW 3.5 mph 3.5 mph 31 % 0.00 in
14:28 100.6 °F 64.5 °F 29.74 in WNW 3.5 mph 3.5 mph 31 % 0.00 in
14:33 100.8 °F 64.6 °F 29.74 in NW 2.3 mph 2.3 mph 31 % 0.00 in
14:39 101.1 °F 62.0 °F 29.73 in West 3.5 mph 3.5 mph 28 % 0.00 in
14:44 101.3 °F 63.2 °F 29.73 in North 3.0 mph 3.0 mph 29 % 0.00 in
14:49 101.3 °F 63.2 °F 29.73 in WNW 3.5 mph 3.5 mph 29 % 0.00 in
14:54 101.4 °F 64.2 °F 29.73 in NNW 2.3 mph 2.5 mph 30 % 0.00 in
14:59 101.4 °F 64.2 °F 29.73 in NW 4.6 mph 4.6 mph 30 % 0.00 in
15:04 101.5 °F 64.3 °F 29.73 in NNW 3.5 mph 3.5 mph 30 % 0.00 in
15:09 101.9 °F 64.6 °F 29.72 in NW 3.5 mph 3.5 mph 30 % 0.00 in
15:14 102.3 °F 63.0 °F 29.72 in NW 2.3 mph 2.3 mph 28 % 0.00 in
15:19 102.3 °F 63.0 °F 29.72 in WNW 2.3 mph 2.3 mph 28 % 0.00 in
15:24 101.8 °F 63.6 °F 29.72 in NW 3.5 mph 3.5 mph 29 % 0.00 in
15:29 101.3 °F 63.2 °F 29.72 in NW 3.5 mph 3.5 mph 29 % 0.00 in
15:34 101.1 °F 64.9 °F 29.72 in NNW 2.3 mph 2.3 mph 31 % 0.00 in
15:39 101.0 °F 60.9 °F 29.71 in NW 3.5 mph 3.5 mph 27 % 0.00 in
15:44 100.5 °F 60.4 °F 29.71 in WNW 3.5 mph 3.5 mph 27 % 0.00 in
15:45 100.4 °F 63.3 °F 29.71 in WNW 3.0 mph 3.0 mph 30 % 0.00 in
15:50 99.7 °F 61.8 °F 29.71 in NW 2.3 mph 2.3 mph 29 % 0.00 in
15:55 99.3 °F 64.2 °F 29.71 in NW 2.3 mph 2.3 mph 32 % 0.00 in
16:00 99.0 °F 63.1 °F 29.71 in NNW 1.2 mph 1.2 mph 31 % 0.00 in
16:05 98.8 °F 62.9 °F 29.71 in WNW 3.5 mph 3.5 mph 31 % 0.00 in
16:10 98.7 °F 62.8 °F 29.70 in NW 1.2 mph 1.2 mph 31 % 0.00 in
16:15 98.9 °F 63.0 °F 29.70 in North 2.3 mph 2.3 mph 31 % 0.00 in
16:20 99.0 °F 64.0 °F 29.70 in NW 3.5 mph 3.5 mph 32 % 0.00 in
16:25 99.2 °F 64.2 °F 29.70 in NNW 4.0 mph 4.0 mph 32 % 0.00 in
16:26 99.2 °F 63.3 °F 29.70 in WNW 3.5 mph 3.5 mph 31 % 0.00 in
16:31 99.6 °F 63.6 °F 29.70 in NW 3.5 mph 3.5 mph 31 % 0.00 in
16:36 99.9 °F 64.8 °F 29.70 in NW 2.3 mph 2.3 mph 32 % 0.00 in
16:41 100.5 °F 65.3 °F 29.70 in NW 2.3 mph 2.3 mph 32 % 0.00 in
16:46 101.0 °F 62.9 °F 29.70 in WNW 3.5 mph 3.5 mph 29 % 0.00 in
16:51 101.2 °F 63.1 °F 29.70 in NW 3.5 mph 3.5 mph 29 % 0.00 in
16:56 101.3 °F 65.1 °F 29.70 in WNW 3.5 mph 3.5 mph 31 % 0.00 in
17:01 101.4 °F 64.2 °F 29.70 in WNW 3.5 mph 3.5 mph 30 % 0.00 in
17:06 101.4 °F 64.2 °F 29.70 in WNW 3.5 mph 3.5 mph 30 % 0.00 in
17:11 101.5 °F 65.2 °F 29.70 in NW 3.5 mph 3.5 mph 31 % 0.00 in
17:16 101.2 °F 64.0 °F 29.69 in NW 3.5 mph 3.5 mph 30 % 0.00 in
17:21 100.9 °F 63.8 °F 29.69 in NW 3.5 mph 3.5 mph 30 % 0.00 in
17:26 100.6 °F 65.4 °F 29.69 in NW 1.2 mph 1.2 mph 32 % 0.00 in
17:31 100.2 °F 65.0 °F 29.69 in NW 1.2 mph 1.2 mph 32 % 0.00 in
17:36 99.7 °F 65.5 °F 29.69 in NW 3.5 mph 3.5 mph 33 % 0.00 in
17:41 99.3 °F 65.1 °F 29.69 in NW 2.3 mph 2.3 mph 33 % 0.00 in
17:46 98.9 °F 66.5 °F 29.69 in NW 3.5 mph 3.5 mph 35 % 0.00 in
17:51 98.6 °F 66.2 °F 29.69 in NW 2.3 mph 2.3 mph 35 % 0.00 in
17:56 98.4 °F 65.2 °F 29.69 in NW 3.5 mph 3.5 mph 34 % 0.00 in
18:01 97.9 °F 65.6 °F 29.69 in NW 3.0 mph 3.0 mph 35 % 0.00 in
18:06 97.5 °F 65.2 °F 29.69 in NW 2.3 mph 2.3 mph 35 % 0.00 in
18:11 97.3 °F 65.1 °F 29.69 in NW 1.2 mph 1.2 mph 35 % 0.00 in
18:13 97.2 °F 65.0 °F 29.69 in NW 2.3 mph 2.3 mph 35 % 0.00 in
18:18 97.0 °F 65.6 °F 29.69 in Calm     36 % 0.00 in
18:23 96.5 °F 65.2 °F 29.69 in NW 1.2 mph 1.2 mph 36 % 0.00 in
18:28 96.0 °F 65.5 °F 29.69 in NW 2.0 mph 2.0 mph 37 % 0.00 in
18:33 95.6 °F 65.9 °F 29.69 in NW 1.2 mph 1.2 mph 38 % 0.00 in
18:38 95.4 °F 65.0 °F 29.69 in NW 1.2 mph 1.2 mph 37 % 0.00 in
18:43 95.3 °F 64.9 °F 29.69 in NW 1.2 mph 1.2 mph 37 % 0.00 in
18:48 95.2 °F 65.6 °F 29.69 in WNW 1.2 mph   38 % 0.00 in
18:53 94.9 °F 65.3 °F 29.69 in WNW 1.2 mph   38 % 0.00 in
18:58 94.7 °F 65.9 °F 29.69 in Calm   0.3 mph 39 % 0.00 in
19:03 94.4 °F 65.6 °F 29.69 in NW 1.2 mph 1.2 mph 39 % 0.00 in
19:08 94.1 °F 65.4 °F 29.69 in NNW 1.2 mph   39 % 0.00 in
19:13 93.7 °F 65.7 °F 29.69 in NW 1.2 mph 1.2 mph 40 % 0.00 in
19:18 93.2 °F 66.0 °F 29.69 in Calm     41 % 0.00 in
19:23 92.9 °F 65.0 °F 29.69 in Calm     40 % 0.00 in
19:28 92.8 °F 65.6 °F 29.69 in Calm     41 % 0.00 in
19:33 92.5 °F 65.4 °F 29.70 in Calm     41 % 0.00 in
19:38 92.1 °F 65.0 °F 29.70 in Calm     41 % 0.00 in
19:43 91.5 °F 65.2 °F 29.70 in Calm     42 % 0.00 in
19:48 91.4 °F 65.1 °F 29.70 in North 1.2 mph   42 % 0.00 in
19:53 91.6 °F 65.3 °F 29.70 in North 1.2 mph   42 % 0.00 in
19:58 91.4 °F 65.8 °F 29.70 in North 1.2 mph   43 % 0.00 in
20:03 90.9 °F 65.3 °F 29.70 in Calm     43 % 0.00 in
20:09 90.6 °F 63.7 °F 29.70 in North 1.2 mph   41 % 0.00 in
20:21 89.8 °F 66.3 °F 29.70 in Calm     46 % 0.00 in
20:23 89.4 °F 65.9 °F 29.70 in Calm     46 % 0.00 in
20:25 89.1 °F 66.2 °F 29.70 in Calm     47 % 0.00 in
20:27 88.8 °F 67.2 °F 29.70 in Calm     49 % 0.00 in
20:31 88.4 °F 66.8 °F 29.70 in Calm     49 % 0.00 in
20:33 88.0 °F 66.4 °F 29.71 in Calm     49 % 0.00 in
20:34 88.0 °F 66.4 °F 29.71 in Calm     49 % 0.00 in
20:36 87.7 °F 66.8 °F 29.71 in Calm     50 % 0.00 in
20:41 87.2 °F 68.0 °F 29.71 in Calm     53 % 0.00 in
20:46 86.8 °F 68.2 °F 29.71 in Calm     54 % 0.00 in
20:51 86.3 °F 68.8 °F 29.71 in Calm     56 % 0.00 in
20:56 85.8 °F 68.3 °F 29.71 in Calm     56 % 0.00 in
21:01 85.7 °F 67.7 °F 29.72 in Calm     55 % 0.00 in
21:06 85.7 °F 67.7 °F 29.72 in Calm     55 % 0.00 in
21:11 85.8 °F 66.7 °F 29.72 in North 1.0 mph   53 % 0.00 in
21:16 85.9 °F 67.3 °F 29.72 in Calm     54 % 0.00 in
21:21 85.7 °F 67.7 °F 29.72 in Calm     55 % 0.00 in
21:26 85.7 °F 66.6 °F 29.72 in North 1.2 mph   53 % 0.00 in
21:31 85.8 °F 66.7 °F 29.72 in Calm     53 % 0.00 in
21:36 85.4 °F 66.9 °F 29.72 in Calm     54 % 0.00 in
21:41 84.6 °F 68.2 °F 29.72 in Calm     58 % 0.00 in
21:46 83.6 °F 66.8 °F 29.73 in Calm     57 % 0.00 in
21:51 83.7 °F 66.3 °F 29.73 in Calm     56 % 0.00 in
21:56 84.6 °F 66.7 °F 29.73 in Calm     55 % 0.00 in
22:01 84.8 °F 67.4 °F 29.73 in Calm     56 % 0.00 in
22:06 84.5 °F 67.6 °F 29.73 in Calm     57 % 0.00 in
22:11 84.1 °F 67.7 °F 29.73 in Calm     58 % 0.00 in
22:16 83.7 °F 67.4 °F 29.73 in Calm     58 % 0.00 in
22:21 83.2 °F 66.9 °F 29.73 in Calm     58 % 0.00 in
22:27 83.2 °F 66.4 °F 29.73 in Calm     57 % 0.00 in
22:32 83.2 °F 65.4 °F 29.73 in NW 1.2 mph 1.2 mph 55 % 0.00 in
22:37 84.2 °F 63.5 °F 29.73 in NW 1.2 mph 1.2 mph 50 % 0.00 in
22:42 85.2 °F 62.1 °F 29.74 in Calm     46 % 0.00 in
22:52 86.7 °F 63.4 °F 29.73 in Calm     46 % 0.00 in
22:57 86.1 °F 64.7 °F 29.74 in Calm     49 % 0.00 in
23:02 85.3 °F 63.4 °F 29.74 in Calm     48 % 0.00 in
23:07 84.9 °F 65.9 °F 29.74 in Calm     53 % 0.00 in
23:12 84.4 °F 65.9 °F 29.74 in Calm     54 % 0.00 in
23:17 83.7 °F 65.8 °F 29.74 in West 1.2 mph   55 % 0.00 in
23:22 83.0 °F 65.7 °F 29.74 in Calm     56 % 0.00 in
23:27 82.3 °F 64.5 °F 29.74 in Calm     55 % 0.00 in
23:32 82.1 °F 64.3 °F 29.74 in Calm     55 % 0.00 in
23:37 82.1 °F 64.8 °F 29.74 in Calm     56 % 0.00 in
23:42 82.0 °F 65.8 °F 29.74 in Calm     58 % 0.00 in
23:47 81.8 °F 65.1 °F 29.74 in Calm     57 % 0.00 in
23:52 81.7 °F 64.5 °F 29.74 in Calm     56 % 0.00 in
23:57 81.4 °F 64.7 °F 29.74 in Calm     57 % 0.00 in
Park Place, Exeter, Tulare County, California, USA
Compliments of Weather Underground - 2.75 mb